Datos. Málaga, Centro Meteorológico

Actualizado: miércoles, 17 septiembre 2014 a las 04:32 hora oficial
Ind. climatológico: 6156X -  Altitud (m): 54
Latitud36° 43' 4'' N - Longitud4° 28' 54'' O -  PosiciónVer localización
MunicipioMálaga (Málaga) - Ver predicción
Registros - de
Fecha y hora oficial

 

Temp. (°C)

 

V. vien. (km/h)

 

Dir. viento

 

Racha (km/h)

 

Dir. racha

 

Prec. (mm)

 

Presión (hPa)

 

Tend. (hPa)

 

Humedad (%)

 

17/09/2014 04:00 21.9 5 4-EsteEste 10 4-EsteEste 0.0 1004.1 -0.6 70
17/09/2014 03:00 22.0 5 4-EsteEste 10 4-EsteEste 0.0 1004.5 0.0 69
17/09/2014 02:00 22.4 4 5-SudesteSudeste 8 4-EsteEste 0.0 1004.6 0.2 69
17/09/2014 01:00 23.0 6 4-EsteEste 12 5-SudesteSudeste 0.0 1004.7 0.7 66
17/09/2014 00:00 23.4 7 4-EsteEste 12 4-EsteEste 0.0 1004.5 1.0 65
16/09/2014 23:00 23.5 5 4-EsteEste 10 4-EsteEste 0.0 1004.4 1.2 63
16/09/2014 22:00 24.0 6 4-EsteEste 12 5-SudesteSudeste 0.0 1004.0 0.9 60
16/09/2014 21:00 24.0 9 4-EsteEste 18 4-EsteEste 0.0 1003.5 0.7 57
16/09/2014 20:00 25.1 6 5-SudesteSudeste 17 5-SudesteSudeste 0.0 1003.2 0.3 52
16/09/2014 19:00 25.8 7 5-SudesteSudeste 12 5-SudesteSudeste 0.0 1003.1 -0.1 47
16/09/2014 18:00 25.7 12 5-SudesteSudeste 20 5-SudesteSudeste 0.0 1002.8 -0.5 44
16/09/2014 17:00 27.0 13 5-SudesteSudeste 20 5-SudesteSudeste 0.0 1002.9 -0.9 40
16/09/2014 16:00 26.8 10 5-SudesteSudeste 19 5-SudesteSudeste 0.0 1003.2 -0.2 41
16/09/2014 15:00 26.0 10 5-SudesteSudeste 18 5-SudesteSudeste 0.0 1003.3 -0.8 43
16/09/2014 14:00 27.2 16 5-SudesteSudeste 22 5-SudesteSudeste 0.0 1003.8 -0.7 38
16/09/2014 13:00 29.1 12 5-SudesteSudeste 19 5-SudesteSudeste 0.0 1003.4 -0.9 35
16/09/2014 12:00 28.3 8 5-SudesteSudeste 15 5-SudesteSudeste 0.0 1004.1 0.7 38
16/09/2014 11:00 23.4 0 1-CalmaCalma 6 8-OesteOeste 0.0 1004.5 0.8 60
16/09/2014 10:00 21.4 9 8-OesteOeste 13 8-OesteOeste 0.0 1004.3 1.1 67
16/09/2014 09:00 19.8 6 8-OesteOeste 10 8-OesteOeste 0.0 1003.4 -0.3 73
16/09/2014 08:00 18.7 5 8-OesteOeste 11 8-OesteOeste 0.0 1003.7 -0.1 74
16/09/2014 07:00 18.4 2 8-OesteOeste 4 8-OesteOeste 0.0 1003.2 -1.3 69
16/09/2014 06:00 18.4 5 8-OesteOeste 8 8-OesteOeste 0.0 1003.7 -1.2 81
16/09/2014 05:00 19.8 6 8-OesteOeste 9 8-OesteOeste 0.0 1003.8 -1.8 72
First Page First Page First Page Last Page
Lineas por página
Página   de  
Compartir:  
En esta página podrá acceder, en forma gráfica y en tabla, a las observaciones horarias de las últimas 24 horas, así como a los valores extremos y acumulados desde las 00 horas del día hasta la hora de actualización indicada, obtenidos en la red de estaciones de AEMET. También podrá acceder a los resúmenes diarios de estas estaciones en los últimos 7 días.

En el mapa aparecen estaciones con valor númerico y otras representadas por un punto. En las primeras, al pasar el ratón, aparece un desplegable con la información completa de la estación. Las estaciones representadas por un punto son estaciones de la red climatológica, con transmisión de datos superior a la hora, por lo que al seleccionarlas pueden no aparecer los últimos datos.

Los datos presentados han sido únicamente sometidos a controles automáticos de calidad en tiempo real, por lo que no puede garantizarse la ausencia de errores.
© AEMET. Autorizado el uso de la información y su reproducción citando a AEMET como autora de la misma.